Time;durP1;ratioP1;P1;durP2;ratioP2;P2;SDS_P1;SDS_P2;PMS_P1;PMS_P2;Temp;Humidity;BMP_temperature;BMP_pressure;BME280_temperature;BME280_humidity;BME280_pressure;Samples;Min_cycle;Max_cycle;Signal;HPM_P1;HPM_P2
2022/05/06 00:01:34;;;;;;;;;;;16.60;54.40;;;;;;2384410;54;20124;-77
2022/05/06 00:04:00;;;;;;;;;;;16.60;54.40;;;;;;2289662;54;20064;-79
2022/05/06 00:06:30;;;;;;;;;;;16.60;54.50;;;;;;2294458;54;20068;-77
2022/05/06 00:08:56;;;;;;;;;;;16.60;54.50;;;;;;2293744;54;20072;-78
2022/05/06 00:11:25;;;;;;;;;;;16.60;54.50;;;;;;2292953;54;20072;-77
2022/05/06 00:13:52;;;;;;;;;;;16.60;54.60;;;;;;2287116;54;20092;-77
2022/05/06 00:16:21;;;;;;;;;;;16.60;54.60;;;;;;2291451;54;20076;-77
2022/05/06 00:18:48;;;;;;;;;;;16.60;54.60;;;;;;2268987;56;20140;-77
2022/05/06 00:21:16;;;;;;;;;;;16.60;54.60;;;;;;2269502;55;20120;-76
2022/05/06 00:23:42;;;;;;;;;;;16.60;54.70;;;;;;2348916;54;20420;-76
2022/05/06 00:26:09;;;;;;;;;;;16.60;54.70;;;;;;2267365;55;20132;-77
2022/05/06 00:28:35;;;;;;;;;;;16.60;54.70;;;;;;2307842;54;20068;-78
2022/05/06 00:31:02;;;;;;;;;;;16.60;54.60;;;;;;2291318;54;20189;-77
2022/05/06 00:33:29;;;;;;;;;;;16.60;54.50;;;;;;2291049;54;20144;-77
2022/05/06 00:35:55;;;;;;;;;;;16.60;54.60;;;;;;2291136;54;20579;-78
2022/05/06 00:38:22;;;;;;;;;;;16.60;54.60;;;;;;2290404;55;20580;-78
2022/05/06 00:40:55;;;;;;;;;;;16.60;54.60;;;;;;2291183;54;20229;-77
2022/05/06 00:43:21;;;;;;;;;;;16.60;54.60;;;;;;2297435;54;20638;-78
2022/05/06 00:45:57;;;;;;;;;;;16.60;54.60;;;;;;2291694;54;20565;-78
2022/05/06 00:48:24;;;;;;;;;;;16.50;54.50;;;;;;2288262;54;20411;-77
2022/05/06 00:50:52;;;;;;;;;;;16.50;54.60;;;;;;2395518;54;20087;-77
2022/05/06 00:53:18;;;;;;;;;;;16.50;54.60;;;;;;2287301;54;20250;-77
2022/05/06 00:55:45;;;;;;;;;;;16.50;54.70;;;;;;2294118;54;20128;-77
2022/05/06 00:58:11;;;;;;;;;;;16.50;54.70;;;;;;2282173;55;20080;-76
2022/05/06 01:00:37;;;;;;;;;;;16.50;54.80;;;;;;2280285;54;20071;-78
2022/05/06 01:03:03;;;;;;;;;;;16.50;54.80;;;;;;2299130;54;20079;-76
2022/05/06 01:05:30;;;;;;;;;;;16.50;54.90;;;;;;2290045;54;20086;-77
2022/05/06 01:07:58;;;;;;;;;;;16.50;55.00;;;;;;2290082;55;20123;-78
2022/05/06 01:10:24;;;;;;;;;;;16.50;55.00;;;;;;2323773;54;20083;-77
2022/05/06 01:12:50;;;;;;;;;;;16.50;55.00;;;;;;2268796;54;20132;-77
2022/05/06 01:15:20;;;;;;;;;;;16.50;55.00;;;;;;2324204;54;20620;-77
2022/05/06 01:17:47;;;;;;;;;;;16.50;55.00;;;;;;2286843;55;20063;-77
2022/05/06 01:20:16;;;;;;;;;;;16.50;55.10;;;;;;2289357;54;20334;-76
2022/05/06 01:22:47;;;;;;;;;;;16.50;55.10;;;;;;2424748;54;20086;-78
2022/05/06 01:25:14;;;;;;;;;;;16.60;55.20;;;;;;2287594;54;20175;-77
2022/05/06 01:27:45;;;;;;;;;;;16.60;55.20;;;;;;2291247;54;20192;-78
2022/05/06 01:30:13;;;;;;;;;;;16.60;55.10;;;;;;2291379;54;20145;-77
2022/05/06 01:32:39;;;;;;;;;;;16.60;55.10;;;;;;2293350;54;20076;-79
2022/05/06 01:35:07;;;;;;;;;;;16.60;55.20;;;;;;2311936;54;20069;-78
2022/05/06 01:37:35;;;;;;;;;;;16.60;55.20;;;;;;2293597;54;20166;-77
2022/05/06 01:40:05;;;;;;;;;;;16.60;55.20;;;;;;2312361;54;20107;-80
2022/05/06 01:42:31;;;;;;;;;;;16.60;55.20;;;;;;2307068;54;20109;-76
2022/05/06 01:44:57;;;;;;;;;;;16.60;55.10;;;;;;2327259;54;20155;-77
2022/05/06 01:47:27;;;;;;;;;;;16.60;55.10;;;;;;2335154;54;20138;-77
2022/05/06 01:49:54;;;;;;;;;;;16.60;55.20;;;;;;2362398;54;20077;-78
2022/05/06 01:52:20;;;;;;;;;;;16.60;55.20;;;;;;2272369;55;20201;-77
2022/05/06 01:54:47;;;;;;;;;;;16.60;55.20;;;;;;2432207;54;20113;-77
2022/05/06 01:57:13;;;;;;;;;;;16.60;55.20;;;;;;2288822;55;20072;-78
2022/05/06 01:59:39;;;;;;;;;;;16.60;55.20;;;;;;2296285;54;20129;-77
2022/05/06 02:02:05;;;;;;;;;;;16.60;55.20;;;;;;2309078;54;20155;-78
2022/05/06 02:07:17;;;;;;;;;;;16.50;55.10;;;;;;2295587;54;20067;-77
2022/05/06 02:09:43;;;;;;;;;;;16.60;55.20;;;;;;2293222;54;20069;-78
2022/05/06 02:12:10;;;;;;;;;;;16.50;55.10;;;;;;2292644;54;20096;-78
2022/05/06 02:14:36;;;;;;;;;;;16.60;55.20;;;;;;2352999;54;20068;-78
2022/05/06 02:17:02;;;;;;;;;;;16.50;55.10;;;;;;2353267;54;20072;-77
2022/05/06 02:19:28;;;;;;;;;;;16.50;55.20;;;;;;2326044;54;20073;-77
2022/05/06 02:21:55;;;;;;;;;;;16.50;55.20;;;;;;2331885;53;20080;-77
2022/05/06 02:24:21;;;;;;;;;;;16.50;55.20;;;;;;2302545;54;20127;-76
2022/05/06 02:26:50;;;;;;;;;;;16.50;55.20;;;;;;2329593;54;20067;-79
2022/05/06 02:29:16;;;;;;;;;;;16.50;55.20;;;;;;2291616;54;20132;-77
2022/05/06 02:34:28;;;;;;;;;;;16.50;55.30;;;;;;2366732;54;20121;-77
2022/05/06 02:36:54;;;;;;;;;;;16.50;55.30;;;;;;2293209;54;20105;-77
2022/05/06 02:39:20;;;;;;;;;;;16.50;55.30;;;;;;2293471;54;20077;-77
2022/05/06 02:41:47;;;;;;;;;;;16.50;55.30;;;;;;2339934;54;20128;-77
2022/05/06 02:44:13;;;;;;;;;;;16.50;55.30;;;;;;2293367;54;20371;-77
2022/05/06 02:46:39;;;;;;;;;;;16.50;55.30;;;;;;2368844;53;20083;-77
2022/05/06 02:49:06;;;;;;;;;;;16.50;55.30;;;;;;2299200;55;20080;-77
2022/05/06 02:51:32;;;;;;;;;;;16.50;55.30;;;;;;2310753;54;20101;-79
2022/05/06 02:53:59;;;;;;;;;;;16.50;55.30;;;;;;2346013;53;20058;-77
2022/05/06 02:56:25;;;;;;;;;;;16.50;55.30;;;;;;2295495;54;20071;-77
2022/05/06 02:58:51;;;;;;;;;;;16.50;55.30;;;;;;2289691;54;20119;-78
2022/05/06 03:01:18;;;;;;;;;;;16.50;55.30;;;;;;2296970;54;20851;-77
2022/05/06 03:03:44;;;;;;;;;;;16.40;55.30;;;;;;2302867;54;20072;-77
2022/05/06 03:06:10;;;;;;;;;;;16.50;55.40;;;;;;2295656;54;20731;-77
2022/05/06 03:08:37;;;;;;;;;;;16.50;55.40;;;;;;2370737;54;20072;-77
2022/05/06 03:11:05;;;;;;;;;;;16.50;55.40;;;;;;2291238;54;20435;-78
2022/05/06 03:13:31;;;;;;;;;;;16.50;55.40;;;;;;2330326;54;20128;-78
2022/05/06 03:15:57;;;;;;;;;;;16.50;55.40;;;;;;2436457;54;20064;-77
2022/05/06 03:18:26;;;;;;;;;;;16.50;55.40;;;;;;2291957;54;20087;-77
2022/05/06 03:20:54;;;;;;;;;;;16.40;55.40;;;;;;2294828;54;20125;-77
2022/05/06 03:23:44;;;;;;;;;;;16.40;55.40;;;;;;2325883;54;20227;-77
2022/05/06 03:26:13;;;;;;;;;;;16.40;55.40;;;;;;2294766;55;20112;-77
2022/05/06 03:28:39;;;;;;;;;;;16.40;55.40;;;;;;2279380;55;20109;-77
2022/05/06 03:31:06;;;;;;;;;;;16.40;55.40;;;;;;2332104;54;20072;-78
2022/05/06 03:33:32;;;;;;;;;;;16.40;55.40;;;;;;2496469;54;20075;-78
2022/05/06 03:35:59;;;;;;;;;;;16.40;55.40;;;;;;2398054;54;20075;-77
2022/05/06 03:38:25;;;;;;;;;;;16.40;55.40;;;;;;2305271;54;20068;-78
2022/05/06 03:40:52;;;;;;;;;;;16.40;55.40;;;;;;2297601;54;20080;-76
2022/05/06 03:43:19;;;;;;;;;;;16.40;55.40;;;;;;2346077;54;20071;-77
2022/05/06 03:45:45;;;;;;;;;;;16.40;55.40;;;;;;2296813;54;20085;-78
2022/05/06 03:48:11;;;;;;;;;;;16.40;55.40;;;;;;2302118;54;20172;-78
2022/05/06 03:53:26;;;;;;;;;;;16.30;55.30;;;;;;2408264;54;20076;-77
2022/05/06 03:55:52;;;;;;;;;;;16.30;55.40;;;;;;2283591;54;20065;-77
2022/05/06 03:58:18;;;;;;;;;;;16.30;55.40;;;;;;2292932;54;20201;-78
2022/05/06 04:00:45;;;;;;;;;;;16.30;55.40;;;;;;2288643;54;20104;-77
2022/05/06 04:03:11;;;;;;;;;;;16.30;56.00;;;;;;2295068;54;20383;-77
2022/05/06 04:05:37;;;;;;;;;;;16.30;55.40;;;;;;2271745;55;20092;-77
2022/05/06 04:08:03;;;;;;;;;;;16.30;55.50;;;;;;2308665;55;20138;-77
2022/05/06 04:10:30;;;;;;;;;;;16.30;55.40;;;;;;2291373;54;20107;-77
2022/05/06 04:12:57;;;;;;;;;;;16.30;55.50;;;;;;2290935;54;20140;-77
2022/05/06 04:15:26;;;;;;;;;;;16.30;55.50;;;;;;2292714;54;20064;-78
2022/05/06 04:17:53;;;;;;;;;;;16.30;55.50;;;;;;2295585;54;20060;-77
2022/05/06 04:25:49;;;;;;;;;;;16.30;55.60;;;;;;2289898;54;20080;-78
2022/05/06 04:28:16;;;;;;;;;;;16.20;55.50;;;;;;2302266;54;20107;-77
2022/05/06 04:30:42;;;;;;;;;;;16.20;55.60;;;;;;2323941;53;20337;-77
2022/05/06 04:33:08;;;;;;;;;;;16.20;55.60;;;;;;2333202;54;20132;-77
2022/05/06 04:35:37;;;;;;;;;;;16.20;55.60;;;;;;2322441;54;20068;-77
2022/05/06 04:38:04;;;;;;;;;;;16.20;55.60;;;;;;2378402;54;20076;-77
2022/05/06 04:40:30;;;;;;;;;;;16.20;55.60;;;;;;2292200;54;20136;-77
2022/05/06 04:42:56;;;;;;;;;;;16.20;55.60;;;;;;2293438;54;20073;-77
2022/05/06 04:45:23;;;;;;;;;;;16.20;55.60;;;;;;2293556;54;20085;-77
2022/05/06 04:47:50;;;;;;;;;;;16.20;55.70;;;;;;2458936;54;20402;-77
2022/05/06 04:50:17;;;;;;;;;;;16.20;55.70;;;;;;2293491;54;20084;-78
2022/05/06 04:52:44;;;;;;;;;;;16.20;55.70;;;;;;2293124;54;20129;-78
2022/05/06 04:55:13;;;;;;;;;;;16.20;55.70;;;;;;2528344;54;20061;-77
2022/05/06 04:57:39;;;;;;;;;;;16.20;55.70;;;;;;2292594;55;20151;-78
2022/05/06 05:00:06;;;;;;;;;;;16.20;55.80;;;;;;2292939;54;20362;-77
2022/05/06 05:02:33;;;;;;;;;;;16.20;56.40;;;;;;2302903;54;20409;-77
2022/05/06 05:05:03;;;;;;;;;;;16.20;55.80;;;;;;2313492;55;20072;-76
2022/05/06 05:07:32;;;;;;;;;;;16.20;55.80;;;;;;2385440;54;20459;-79
2022/05/06 05:09:58;;;;;;;;;;;16.20;55.80;;;;;;2342016;54;20132;-78
2022/05/06 05:12:25;;;;;;;;;;;16.20;55.80;;;;;;2298834;54;20116;-77
2022/05/06 05:15:00;;;;;;;;;;;16.30;55.90;;;;;;2290437;55;20124;-78
2022/05/06 05:17:27;;;;;;;;;;;16.20;55.80;;;;;;2277041;54;20128;-77
2022/05/06 05:19:53;;;;;;;;;;;16.30;55.90;;;;;;2293561;54;20088;-77
2022/05/06 05:22:19;;;;;;;;;;;16.30;55.90;;;;;;2464603;54;20083;-78
2022/05/06 05:24:46;;;;;;;;;;;16.30;55.90;;;;;;2324807;54;20084;-77
2022/05/06 05:27:15;;;;;;;;;;;16.30;56.00;;;;;;2330128;54;20060;-78
2022/05/06 05:29:42;;;;;;;;;;;16.30;56.00;;;;;;2338477;54;20088;-76
2022/05/06 05:32:09;;;;;;;;;;;16.30;56.00;;;;;;2293026;54;20140;-77
2022/05/06 05:34:35;;;;;;;;;;;16.30;56.00;;;;;;2303799;54;20093;-77
2022/05/06 05:37:06;;;;;;;;;;;16.30;56.00;;;;;;2362007;55;20075;-77
2022/05/06 05:39:32;;;;;;;;;;;16.30;56.00;;;;;;2292033;54;20196;-77
2022/05/06 05:41:58;;;;;;;;;;;16.30;56.00;;;;;;2289711;55;20059;-76
2022/05/06 05:49:53;;;;;;;;;;;16.30;55.90;;;;;;2296184;54;20100;-77
2022/05/06 05:52:19;;;;;;;;;;;16.30;56.00;;;;;;2290430;54;20088;-77
2022/05/06 05:54:46;;;;;;;;;;;16.30;56.00;;;;;;2294072;54;20120;-77
2022/05/06 05:57:12;;;;;;;;;;;16.40;56.10;;;;;;2288132;54;20072;-77
2022/05/06 05:59:39;;;;;;;;;;;16.40;56.20;;;;;;2371971;54;20133;-78
2022/05/06 06:02:10;;;;;;;;;;;16.40;56.20;;;;;;2298043;54;20072;-78
2022/05/06 06:04:38;;;;;;;;;;;16.40;56.20;;;;;;2294833;54;20188;-77
2022/05/06 06:07:05;;;;;;;;;;;16.40;56.20;;;;;;2318587;54;20168;-77
2022/05/06 06:09:32;;;;;;;;;;;16.40;56.20;;;;;;2291338;54;20093;-77
2022/05/06 06:11:58;;;;;;;;;;;16.40;56.20;;;;;;2292727;54;20064;-77
2022/05/06 06:14:24;;;;;;;;;;;16.50;56.20;;;;;;2525800;54;20180;-76
2022/05/06 06:16:52;;;;;;;;;;;16.50;56.20;;;;;;2291695;54;20128;-76
2022/05/06 06:19:18;;;;;;;;;;;16.50;56.20;;;;;;2290616;54;20081;-77
2022/05/06 06:21:44;;;;;;;;;;;16.50;56.20;;;;;;2432053;54;20064;-77
2022/05/06 06:24:10;;;;;;;;;;;16.50;56.20;;;;;;2291989;54;20183;-77
2022/05/06 06:26:37;;;;;;;;;;;16.50;56.20;;;;;;2298792;54;20127;-77
2022/05/06 06:29:03;;;;;;;;;;;16.50;56.80;;;;;;2290749;54;20133;-77
2022/05/06 06:31:31;;;;;;;;;;;16.50;56.30;;;;;;2316299;54;20381;-76
2022/05/06 06:34:00;;;;;;;;;;;16.60;56.30;;;;;;2295234;54;20187;-77
2022/05/06 06:36:27;;;;;;;;;;;16.60;56.40;;;;;;2421704;54;20089;-77
2022/05/06 06:38:53;;;;;;;;;;;16.60;56.50;;;;;;2291954;54;20119;-77
2022/05/06 06:41:20;;;;;;;;;;;16.60;56.40;;;;;;2290975;54;20109;-77
2022/05/06 06:43:50;;;;;;;;;;;16.70;56.50;;;;;;2291586;54;20068;-77
2022/05/06 06:46:16;;;;;;;;;;;16.70;56.30;;;;;;2383978;54;20172;-77
2022/05/06 06:48:43;;;;;;;;;;;16.80;56.40;;;;;;2295199;55;20078;-77
2022/05/06 06:51:10;;;;;;;;;;;16.80;56.40;;;;;;2353095;54;20427;-77
2022/05/06 06:53:36;;;;;;;;;;;16.80;56.50;;;;;;2295420;54;20135;-76
2022/05/06 06:56:02;;;;;;;;;;;17.00;56.70;;;;;;2314696;54;20081;-78
2022/05/06 06:58:30;;;;;;;;;;;16.90;56.70;;;;;;2306275;54;20072;-77
2022/05/06 07:00:57;;;;;;;;;;;17.00;56.70;;;;;;2291916;54;20072;-77
2022/05/06 07:03:23;;;;;;;;;;;17.10;56.80;;;;;;2289455;54;20068;-77
2022/05/06 07:14:04;;;;;;;;;;;17.30;56.80;;;;;;2329720;54;20677;-77
2022/05/06 07:16:31;;;;;;;;;;;17.30;56.80;;;;;;2385290;54;20139;-74
2022/05/06 07:18:57;;;;;;;;;;;17.30;56.70;;;;;;2293959;54;20075;-74
2022/05/06 07:21:23;;;;;;;;;;;17.40;56.80;;;;;;2276145;54;20641;-75
2022/05/06 07:23:50;;;;;;;;;;;17.40;56.80;;;;;;2329342;54;20072;-75
2022/05/06 07:26:16;;;;;;;;;;;17.50;56.80;;;;;;2368500;54;20083;-75
2022/05/06 07:28:42;;;;;;;;;;;17.50;56.80;;;;;;2425581;54;20455;-74
2022/05/06 07:31:09;;;;;;;;;;;17.60;57.00;;;;;;2291420;54;20084;-75
2022/05/06 07:33:35;;;;;;;;;;;17.70;57.00;;;;;;2342342;54;20084;-76
2022/05/06 07:36:04;;;;;;;;;;;17.70;57.10;;;;;;2294541;54;20239;-75
2022/05/06 07:38:31;;;;;;;;;;;17.90;57.40;;;;;;2282240;55;20108;-76
2022/05/06 07:40:58;;;;;;;;;;;18.00;57.50;;;;;;2289128;54;20136;-75
2022/05/06 07:43:24;;;;;;;;;;;18.10;57.90;;;;;;2314981;54;20147;-76
2022/05/06 07:45:50;;;;;;;;;;;18.20;57.20;;;;;;2296376;54;20100;-75
2022/05/06 07:48:17;;;;;;;;;;;18.20;57.00;;;;;;2466144;54;20873;-76
2022/05/06 07:50:44;;;;;;;;;;;18.40;57.10;;;;;;2288181;55;20119;-76
2022/05/06 07:53:11;;;;;;;;;;;18.50;56.80;;;;;;2376786;54;20116;-74
2022/05/06 07:55:37;;;;;;;;;;;18.50;56.50;;;;;;2326863;54;20099;-75
2022/05/06 07:58:04;;;;;;;;;;;18.50;56.30;;;;;;2289759;54;20157;-75
2022/05/06 08:00:33;;;;;;;;;;;18.50;56.20;;;;;;2407129;54;20136;-74
2022/05/06 08:05:49;;;;;;;;;;;18.50;56.00;;;;;;2299778;55;20077;-74
2022/05/06 08:08:17;;;;;;;;;;;18.50;56.00;;;;;;2332436;54;20133;-74
2022/05/06 08:10:44;;;;;;;;;;;18.50;56.00;;;;;;2329819;54;20164;-74
2022/05/06 08:13:10;;;;;;;;;;;18.50;55.90;;;;;;2291503;54;20144;-74
2022/05/06 08:15:37;;;;;;;;;;;18.50;56.00;;;;;;2410838;53;20179;-75
2022/05/06 08:18:03;;;;;;;;;;;18.50;56.00;;;;;;2314933;54;20312;-74
2022/05/06 08:20:30;;;;;;;;;;;18.50;55.90;;;;;;2378321;54;20483;-75
2022/05/06 08:22:56;;;;;;;;;;;18.50;55.80;;;;;;2287114;55;20080;-76
2022/05/06 08:25:22;;;;;;;;;;;18.50;55.60;;;;;;2345755;53;20081;-75
2022/05/06 08:27:55;;;;;;;;;;;18.50;55.60;;;;;;2268802;56;20185;-75
2022/05/06 08:30:21;;;;;;;;;;;18.40;55.40;;;;;;2299200;54;20137;-74
2022/05/06 08:32:48;;;;;;;;;;;18.40;55.40;;;;;;2365071;54;20112;-75
2022/05/06 08:35:14;;;;;;;;;;;18.40;55.30;;;;;;2310430;55;20116;-76
2022/05/06 08:37:41;;;;;;;;;;;18.40;55.40;;;;;;2327062;54;20313;-75
2022/05/06 08:40:08;;;;;;;;;;;18.30;55.40;;;;;;2290249;54;20063;-75
2022/05/06 08:42:34;;;;;;;;;;;18.30;55.60;;;;;;2300902;54;20087;-74
2022/05/06 08:53:17;;;;;;;;;;;18.30;55.60;;;;;;2384193;54;20099;-75
2022/05/06 08:55:47;;;;;;;;;;;18.30;55.70;;;;;;2330532;53;20163;-75
2022/05/06 08:58:13;;;;;;;;;;;18.30;55.70;;;;;;2291382;54;20475;-75
2022/05/06 09:00:39;;;;;;;;;;;18.30;55.90;;;;;;2291211;54;20495;-75
2022/05/06 09:03:06;;;;;;;;;;;18.30;55.90;;;;;;2290280;54;20077;-75
2022/05/06 09:05:32;;;;;;;;;;;18.40;56.00;;;;;;2291491;54;20094;-75
2022/05/06 09:08:00;;;;;;;;;;;18.40;56.00;;;;;;2308772;54;20072;-75
2022/05/06 09:10:26;;;;;;;;;;;18.50;56.20;;;;;;2283419;54;20208;-74
2022/05/06 09:12:56;;;;;;;;;;;18.50;56.40;;;;;;2408399;54;20730;-75
2022/05/06 09:18:07;;;;;;;;;;;18.70;56.40;;;;;;2291053;54;20188;-75
2022/05/06 09:20:36;;;;;;;;;;;18.70;56.20;;;;;;2292907;54;20450;-74
2022/05/06 09:23:18;;;;;;;;;;;18.80;56.10;;;;;;2291316;54;20073;-76
2022/05/06 09:25:59;;;;;;;;;;;;;;;;;;;;;
2022/05/06 09:28:26;;;;;;;;;;;18.80;55.80;;;;;;2380723;54;20059;-74
2022/05/06 09:31:01;;;;;;;;;;;18.80;55.70;;;;;;2328162;54;20092;-74
2022/05/06 09:33:28;;;;;;;;;;;18.80;55.60;;;;;;2526396;54;20077;-78
2022/05/06 09:35:56;;;;;;;;;;;18.80;55.60;;;;;;2370598;54;20131;-74
2022/05/06 09:38:25;;;;;;;;;;;18.80;55.60;;;;;;2326310;54;20395;-75
2022/05/06 09:40:51;;;;;;;;;;;18.80;55.60;;;;;;2291587;54;20085;-75
2022/05/06 09:43:18;;;;;;;;;;;18.80;55.60;;;;;;2291297;54;20115;-74
2022/05/06 09:45:46;;;;;;;;;;;18.90;55.60;;;;;;2293604;54;20164;-74
2022/05/06 09:48:13;;;;;;;;;;;18.90;55.50;;;;;;2291812;54;20371;-75
2022/05/06 09:50:40;;;;;;;;;;;18.80;55.40;;;;;;2292195;54;20400;-75
2022/05/06 09:53:11;;;;;;;;;;;18.80;55.40;;;;;;2338512;54;20073;-77
2022/05/06 09:55:38;;;;;;;;;;;18.80;55.50;;;;;;2367331;54;20084;-76
2022/05/06 09:58:04;;;;;;;;;;;18.80;55.50;;;;;;2293788;54;20067;-75
2022/05/06 10:00:32;;;;;;;;;;;18.90;55.60;;;;;;2425070;54;20084;-74
2022/05/06 10:03:02;;;;;;;;;;;18.90;55.70;;;;;;2291375;54;20076;-75
2022/05/06 10:05:33;;;;;;;;;;;19.00;55.80;;;;;;2292616;54;20081;-75
2022/05/06 10:08:14;;;;;;;;;;;19.00;55.80;;;;;;2329240;54;20117;-76
2022/05/06 10:10:41;;;;;;;;;;;19.00;55.80;;;;;;2365105;54;20155;-75
2022/05/06 10:13:12;;;;;;;;;;;19.10;55.90;;;;;;2410965;54;20095;-75
2022/05/06 10:15:38;;;;;;;;;;;19.10;55.90;;;;;;2330868;54;20079;-76
2022/05/06 10:18:07;;;;;;;;;;;19.10;55.90;;;;;;2304317;54;20069;-75
2022/05/06 10:20:56;;;;;;;;;;;19.20;55.90;;;;;;2302578;54;20081;-74
2022/05/06 10:23:24;;;;;;;;;;;19.30;55.90;;;;;;2291516;54;20391;-77
2022/05/06 10:25:52;;;;;;;;;;;19.30;55.80;;;;;;2406611;54;20133;-77
2022/05/06 10:34:29;;;;;;;;;;;19.50;55.70;;;;;;2291042;54;20081;-76
2022/05/06 10:36:58;;;;;;;;;;;19.50;55.70;;;;;;2303350;54;20084;-75
2022/05/06 10:39:24;;;;;;;;;;;19.60;55.60;;;;;;2305913;55;20129;-77
2022/05/06 10:42:09;;;;;;;;;;;19.60;55.40;;;;;;2317566;54;20101;-78
2022/05/06 10:44:42;;;;;;;;;;;19.60;55.40;;;;;;2335802;54;20120;-77
2022/05/06 10:47:50;;;;;;;;;;;19.60;55.30;;;;;;2291183;54;20112;-79
2022/05/06 10:50:18;;;;;;;;;;;19.70;55.40;;;;;;2241746;54;3368087;-76
2022/05/06 10:52:45;;;;;;;;;;;19.70;55.30;;;;;;2391104;54;20083;-78
2022/05/06 10:55:15;;;;;;;;;;;19.70;55.30;;;;;;2304343;54;20089;-78
2022/05/06 10:57:51;;;;;;;;;;;19.70;55.30;;;;;;2290876;54;20128;-78
2022/05/06 11:00:18;;;;;;;;;;;19.70;55.40;;;;;;2319864;54;20097;-76
2022/05/06 11:02:44;;;;;;;;;;;19.80;55.60;;;;;;2364428;54;20128;-77
2022/05/06 11:05:17;;;;;;;;;;;19.80;55.60;;;;;;2278036;55;20181;-74
2022/05/06 11:07:45;;;;;;;;;;;19.90;55.70;;;;;;2291300;54;20420;-75
2022/05/06 11:10:22;;;;;;;;;;;19.90;55.60;;;;;;2291120;54;20077;-75
2022/05/06 11:12:51;;;;;;;;;;;20.00;55.70;;;;;;2324327;54;20073;-76
2022/05/06 11:15:18;;;;;;;;;;;20.10;55.60;;;;;;2291945;54;20335;-74
2022/05/06 11:17:45;;;;;;;;;;;20.10;55.60;;;;;;2366423;54;20076;-74
2022/05/06 11:20:31;;;;;;;;;;;20.20;56.10;;;;;;2290765;54;20150;-75
2022/05/06 11:23:03;;;;;;;;;;;20.20;55.40;;;;;;2308254;54;20071;-74
2022/05/06 11:25:30;;;;;;;;;;;20.20;55.40;;;;;;2337248;53;20100;-75
2022/05/06 11:27:56;;;;;;;;;;;20.30;55.40;;;;;;2291517;54;20241;-74
2022/05/06 11:30:23;;;;;;;;;;;20.30;55.30;;;;;;2291043;54;20065;-76
2022/05/06 11:32:55;;;;;;;;;;;20.40;55.40;;;;;;2289852;54;20134;-76
2022/05/06 11:35:24;;;;;;;;;;;20.40;55.40;;;;;;2367109;54;20076;-76
2022/05/06 11:37:50;;;;;;;;;;;20.40;55.40;;;;;;2288633;54;20084;-77
2022/05/06 11:40:35;;;;;;;;;;;20.50;55.50;;;;;;2341141;54;20079;-75
2022/05/06 11:47:38;;;;;;;;;;;20.60;55.70;;;;;;2310421;54;20191;-77
2022/05/06 11:50:05;;;;;;;;;;;20.80;55.70;;;;;;2288482;54;20384;-78
2022/05/06 11:52:34;;;;;;;;;;;20.90;55.80;;;;;;2285779;54;20132;-75
2022/05/06 11:55:01;;;;;;;;;;;21.00;55.80;;;;;;2437209;54;20131;-76
2022/05/06 11:57:27;;;;;;;;;;;21.10;55.80;;;;;;2309793;54;20084;-76
2022/05/06 11:59:53;;;;;;;;;;;21.20;55.80;;;;;;2290288;54;20076;-77
2022/05/06 12:02:19;;;;;;;;;;;21.20;55.90;;;;;;2291063;54;20132;-76
2022/05/06 12:04:46;;;;;;;;;;;21.30;55.40;;;;;;2316622;54;20128;-79
2022/05/06 12:07:15;;;;;;;;;;;21.30;55.20;;;;;;2327144;54;20132;-77
2022/05/06 12:09:42;;;;;;;;;;;21.40;55.20;;;;;;2294848;54;20124;-76
2022/05/06 12:12:10;;;;;;;;;;;21.50;55.20;;;;;;2345195;54;20061;-77
2022/05/06 12:14:37;;;;;;;;;;;21.50;55.20;;;;;;2335236;54;20207;-75
2022/05/06 12:17:05;;;;;;;;;;;21.60;55.40;;;;;;2344302;54;20191;-77
2022/05/06 12:19:38;;;;;;;;;;;21.60;55.30;;;;;;2290226;54;20065;-75
2022/05/06 12:22:20;;;;;;;;;;;21.70;55.10;;;;;;2291337;54;20081;-75
2022/05/06 12:24:47;;;;;;;;;;;21.70;55.00;;;;;;2370734;54;20107;-76
2022/05/06 12:27:26;;;;;;;;;;;21.80;54.90;;;;;;2290012;54;20438;-77
2022/05/06 12:29:52;;;;;;;;;;;21.80;54.90;;;;;;2373328;53;20159;-76
2022/05/06 12:32:19;;;;;;;;;;;21.80;54.60;;;;;;2403315;54;20791;-76
2022/05/06 12:34:45;;;;;;;;;;;21.80;54.50;;;;;;2294852;54;20084;-75
2022/05/06 12:37:15;;;;;;;;;;;21.80;54.40;;;;;;2334613;55;20080;-75
2022/05/06 12:39:44;;;;;;;;;;;21.80;54.50;;;;;;2458380;53;20328;-76
2022/05/06 12:42:14;;;;;;;;;;;21.90;54.50;;;;;;2301399;54;20065;-75
2022/05/06 12:44:43;;;;;;;;;;;21.90;54.50;;;;;;2344690;54;20104;-74
2022/05/06 12:47:13;;;;;;;;;;;21.90;54.50;;;;;;2293140;53;20491;-77
2022/05/06 12:49:40;;;;;;;;;;;22.00;54.60;;;;;;2283896;54;20403;-75
2022/05/06 12:52:10;;;;;;;;;;;22.00;54.60;;;;;;2367735;54;20082;-77
2022/05/06 12:54:36;;;;;;;;;;;22.10;54.70;;;;;;2308300;54;20080;-78
2022/05/06 12:57:03;;;;;;;;;;;22.10;54.70;;;;;;2313840;54;20120;-74
2022/05/06 12:59:29;;;;;;;;;;;22.20;54.80;;;;;;2312956;54;20387;-77
2022/05/06 13:01:56;;;;;;;;;;;22.30;54.90;;;;;;2373878;54;20069;-79
2022/05/06 13:04:22;;;;;;;;;;;22.40;54.90;;;;;;2525877;54;20072;-77
2022/05/06 13:06:48;;;;;;;;;;;22.40;54.80;;;;;;2337042;54;20136;-77
2022/05/06 13:09:15;;;;;;;;;;;22.50;54.80;;;;;;2391176;54;20081;-77
2022/05/06 13:11:41;;;;;;;;;;;22.60;54.60;;;;;;2297822;54;20136;-77
2022/05/06 13:14:08;;;;;;;;;;;22.70;54.50;;;;;;2293055;54;20076;-80
2022/05/06 13:16:39;;;;;;;;;;;22.70;54.00;;;;;;2360637;54;20239;-77
2022/05/06 13:19:06;;;;;;;;;;;22.70;54.00;;;;;;2291038;54;20306;-77
2022/05/06 13:21:32;;;;;;;;;;;22.70;53.70;;;;;;2361449;54;20068;-76
2022/05/06 13:23:58;;;;;;;;;;;22.70;53.30;;;;;;2296642;55;20136;-74
2022/05/06 13:26:25;;;;;;;;;;;22.70;53.00;;;;;;2298842;55;20248;-77
2022/05/06 13:28:51;;;;;;;;;;;22.70;53.00;;;;;;2296470;54;20117;-77
2022/05/06 13:31:18;;;;;;;;;;;22.70;52.80;;;;;;2293456;54;20169;-79
2022/05/06 13:33:44;;;;;;;;;;;22.70;52.80;;;;;;2323237;53;20083;-78
2022/05/06 13:36:14;;;;;;;;;;;22.70;52.90;;;;;;2354334;54;20127;-77
2022/05/06 13:38:40;;;;;;;;;;;22.70;53.00;;;;;;2369809;53;20156;-76
2022/05/06 13:41:07;;;;;;;;;;;22.70;53.60;;;;;;2289610;55;20135;-77
2022/05/06 13:43:33;;;;;;;;;;;22.80;53.00;;;;;;2329611;54;20083;-77
2022/05/06 13:46:00;;;;;;;;;;;22.80;52.90;;;;;;2279482;55;20101;-78
2022/05/06 13:48:27;;;;;;;;;;;22.90;53.00;;;;;;2289690;54;20076;-80
2022/05/06 13:50:56;;;;;;;;;;;22.90;52.60;;;;;;2296228;54;20068;-78
2022/05/06 13:53:23;;;;;;;;;;;22.90;52.50;;;;;;2308095;54;20064;-79
2022/05/06 14:01:20;;;;;;;;;;;23.10;52.90;;;;;;2288809;55;20067;-79
2022/05/06 14:03:46;;;;;;;;;;;23.20;52.80;;;;;;2367040;54;20085;-80
2022/05/06 14:06:13;;;;;;;;;;;23.30;52.60;;;;;;2294720;54;20072;-80
2022/05/06 14:08:40;;;;;;;;;;;23.40;52.80;;;;;;2292375;54;20120;-79
2022/05/06 14:11:07;;;;;;;;;;;23.50;52.70;;;;;;2287885;54;20064;-78
2022/05/06 14:13:33;;;;;;;;;;;23.60;52.70;;;;;;2340423;54;20137;-77
2022/05/06 14:16:01;;;;;;;;;;;23.70;52.50;;;;;;2380391;54;20180;-79
2022/05/06 14:18:28;;;;;;;;;;;23.80;52.40;;;;;;2294339;54;20065;-79
2022/05/06 14:20:54;;;;;;;;;;;23.90;52.30;;;;;;2287718;54;20061;-79
2022/05/06 14:23:21;;;;;;;;;;;23.90;51.70;;;;;;2291159;54;20183;-79
2022/05/06 14:25:47;;;;;;;;;;;24.10;51.70;;;;;;2291784;54;20085;-78
2022/05/06 14:28:14;;;;;;;;;;;24.10;51.60;;;;;;2291283;54;20068;-76
2022/05/06 14:30:43;;;;;;;;;;;24.10;51.40;;;;;;2290963;54;20135;-77
2022/05/06 14:33:09;;;;;;;;;;;24.20;51.20;;;;;;2291320;54;20140;-75
2022/05/06 14:35:36;;;;;;;;;;;24.20;50.90;;;;;;2322634;54;20136;-77
2022/05/06 14:38:03;;;;;;;;;;;24.20;50.70;;;;;;2290627;54;20135;-76
2022/05/06 14:40:29;;;;;;;;;;;24.20;50.30;;;;;;2343242;54;20116;-77
2022/05/06 14:42:56;;;;;;;;;;;24.20;50.10;;;;;;2311356;54;20421;-77
2022/05/06 14:45:22;;;;;;;;;;;24.10;50.10;;;;;;2305647;54;20452;-76
2022/05/06 14:47:50;;;;;;;;;;;24.10;50.10;;;;;;2291243;55;20063;-77
2022/05/06 14:50:16;;;;;;;;;;;24.00;49.70;;;;;;2294304;54;20107;-77
2022/05/06 14:52:42;;;;;;;;;;;24.00;49.80;;;;;;2283161;54;20163;-78
2022/05/06 14:55:09;;;;;;;;;;;24.00;49.70;;;;;;2295111;54;20201;-76
2022/05/06 14:57:36;;;;;;;;;;;24.00;49.70;;;;;;2292001;54;20131;-80
2022/05/06 15:00:03;;;;;;;;;;;24.00;49.80;;;;;;2310255;54;20072;-76
2022/05/06 15:02:31;;;;;;;;;;;24.10;50.00;;;;;;2354869;54;20080;-78
2022/05/06 15:04:57;;;;;;;;;;;24.10;49.60;;;;;;2291351;54;20124;-79
2022/05/06 15:07:23;;;;;;;;;;;24.10;49.60;;;;;;2291577;54;20133;-78
2022/05/06 15:09:50;;;;;;;;;;;24.20;49.70;;;;;;2324553;54;20085;-80
2022/05/06 15:12:17;;;;;;;;;;;24.20;49.60;;;;;;2287321;55;20136;-78
2022/05/06 15:14:44;;;;;;;;;;;24.30;49.50;;;;;;2400614;54;20071;-78
2022/05/06 15:17:15;;;;;;;;;;;24.30;49.50;;;;;;2291450;55;20708;-79
2022/05/06 15:19:42;;;;;;;;;;;24.30;49.10;;;;;;2289484;55;20068;-78